»·PEaware :: N4131C L**-KSBP

N4131C :: L**-KSBP

FLIGHT INFORMATION

Flight Status: Arrived
Operator: Privately registered:
United States
More flights under this callsign
Pilot: Thomas E. (19997)
Aircraft: PIPER PA-28R-201 ARROW
(P28R)
More flights by this aircraft type
Origin: L**
Destination: KSBP San Luis Co Regl
United States
More flights between these airports :: More routes between these airports
Route: VFR
File this flight plan on PilotEdge
Remarks:
Altitude:
(Current/Filed)
6,500ft
Speed:
(Current/Filed)
120kts
Departed: 06-Aug-18 10:20 AM
Arrived: 06-Aug-18 10:47 AM
Distance/Time
Traveled:
Not Available
Distance/Time
To Go:
Arrived

Flight Plot

Page will automatically refresh every two minutes.

Flight plan parsing failed; only flown route is shown


Map Options




Map Legend


Flown Route
Filed Route
Departure Airport
Arrival Airport
Navaid (VOR, NDB)
Fix

Horizontal Profiles

Position Reports

Time Latitude Longitude Heading Altitude Ground
Speed
06-Aug-18 09:57 34.942767 -119.690110 195 2156ft 0kts
06-Aug-18 09:58 34.942767 -119.690110 195 2156ft 0kts
06-Aug-18 09:59 34.942763 -119.690111 194 2156ft 0kts
06-Aug-18 10:00 34.942763 -119.690111 194 2156ft 0kts
06-Aug-18 10:01 34.942763 -119.690111 194 2156ft 0kts
06-Aug-18 10:02 34.942763 -119.690111 194 2156ft 0kts
06-Aug-18 10:03 34.942763 -119.690111 194 2156ft 0kts
06-Aug-18 10:04 34.942763 -119.690111 194 2156ft 0kts
06-Aug-18 10:05 34.942763 -119.690111 194 2156ft 0kts
06-Aug-18 10:06 34.942763 -119.690111 194 2156ft 0kts
06-Aug-18 10:07 34.942763 -119.690111 194 2156ft 0kts
06-Aug-18 10:08 34.942763 -119.690111 194 2156ft 0kts
06-Aug-18 10:09 34.942763 -119.690111 194 2156ft 0kts
06-Aug-18 10:10 34.942763 -119.690111 194 2156ft 0kts
06-Aug-18 10:11 34.942763 -119.690111 194 2156ft 0kts
06-Aug-18 10:12 34.942763 -119.690111 194 2156ft 0kts
06-Aug-18 10:13 34.942763 -119.690111 194 2156ft 0kts
06-Aug-18 10:14 34.942763 -119.690111 194 2156ft 0kts
06-Aug-18 10:15 34.942763 -119.690111 194 2156ft 0kts
06-Aug-18 10:16 34.942763 -119.690111 194 2156ft 0kts
06-Aug-18 10:17 34.942763 -119.690111 194 2156ft 0kts
06-Aug-18 10:18 34.942763 -119.690111 194 2156ft 0kts
06-Aug-18 10:19 34.942846 -119.690917 261 2155ft 7kts
06-Aug-18 10:20 34.942522 -119.691028 148 2155ft 0kts
06-Aug-18 10:21 34.939324 -119.683922 111 2318ft 66kts
06-Aug-18 10:22 34.943949 -119.670106 307 3405ft 84kts
06-Aug-18 10:23 34.954251 -119.699835 291 4155ft 105kts
06-Aug-18 10:24 34.967254 -119.731458 303 5111ft 106kts
06-Aug-18 10:25 34.983024 -119.761487 301 5945ft 107kts
06-Aug-18 10:26 34.999300 -119.793229 300 6452ft 121kts
06-Aug-18 10:27 35.014977 -119.829955 301 6473ft 133kts
06-Aug-18 10:28 35.032027 -119.869623 292 6389ft 134kts
06-Aug-18 10:29 35.046171 -119.910684 294 6356ft 132kts
06-Aug-18 10:30 35.059283 -119.951667 294 6452ft 128kts
06-Aug-18 10:31 35.073290 -119.991197 292 6513ft 129kts
06-Aug-18 10:32 35.087320 -120.030360 294 6534ft 129kts
06-Aug-18 10:33 35.100841 -120.070629 291 6550ft 129kts
06-Aug-18 10:34 35.113695 -120.106191 294 6557ft 129kts
06-Aug-18 10:35 35.122002 -120.146639 282 6567ft 128kts
06-Aug-18 10:36 35.128946 -120.189385 283 6479ft 130kts
06-Aug-18 10:37 35.136149 -120.224441 285 6411ft 130kts
06-Aug-18 10:38 35.144548 -120.266616 283 6350ft 128kts
06-Aug-18 10:39 35.155285 -120.315340 287 6271ft 127kts
06-Aug-18 10:40 35.164269 -120.355548 284 6189ft 128kts
06-Aug-18 10:41 35.171807 -120.390456 286 6013ft 130kts
06-Aug-18 10:42 35.182856 -120.431906 285 5845ft 127kts
06-Aug-18 10:43 35.189535 -120.474973 283 5422ft 135kts
06-Aug-18 10:44 35.197695 -120.527797 283 3689ft 125kts
06-Aug-18 10:45 35.203188 -120.563532 291 2071ft 120kts
06-Aug-18 10:46 35.214197 -120.600696 303 1550ft 117kts
06-Aug-18 10:47 35.229548 -120.627662 310 463ft 79kts
06-Aug-18 10:48 35.237215 -120.639943 4 190ft 10kts
06-Aug-18 10:49 35.237430 -120.639917 6 191ft 0kts
06-Aug-18 10:50 35.237855 -120.638477 72 196ft 3kts
06-Aug-18 10:51 35.238060 -120.638143 177 197ft 0kts
06-Aug-18 10:52 35.238060 -120.638143 177 197ft 0kts

Navigation Log

Ident Type
Flight plan parsing failed, navigation log unavailable